createdAt,value
2018-07-15T00:01:24.429Z,18.29
2018-07-15T00:03:54.016Z,18.19
2018-07-15T00:06:23.176Z,18.12
2018-07-15T00:08:52.217Z,18.10
2018-07-15T00:11:21.284Z,18.10
2018-07-15T00:13:50.412Z,18.09
2018-07-15T00:16:19.312Z,18.09
2018-07-15T00:18:48.769Z,18.07
2018-07-15T00:21:17.872Z,17.99
2018-07-15T00:23:47.196Z,17.96
2018-07-15T00:26:16.796Z,17.93
2018-07-15T00:28:45.880Z,17.94
2018-07-15T00:31:15.313Z,17.89
2018-07-15T00:33:45.328Z,17.80
2018-07-15T00:36:15.200Z,17.77
2018-07-15T00:38:44.329Z,17.82
2018-07-15T00:41:15.748Z,17.87
2018-07-15T00:43:45.813Z,17.88
2018-07-15T00:46:15.689Z,17.86
2018-07-15T00:48:46.446Z,17.84
2018-07-15T00:51:16.525Z,17.79
2018-07-15T00:53:48.012Z,17.77
2018-07-15T00:56:18.563Z,17.77
2018-07-15T00:58:48.374Z,17.78
2018-07-15T01:01:20.089Z,17.77
2018-07-15T01:03:52.037Z,17.82
2018-07-15T01:06:26.555Z,17.96
2018-07-15T01:09:00.319Z,17.99
2018-07-15T01:11:31.028Z,18.06
2018-07-15T01:14:01.448Z,18.08
2018-07-15T01:16:33.337Z,18.12
2018-07-15T01:19:05.788Z,18.11
2018-07-15T01:21:38.881Z,18.07
2018-07-15T01:24:13.410Z,18.11
2018-07-15T01:26:45.849Z,18.03
2018-07-15T01:29:20.982Z,18.01
2018-07-15T01:31:54.716Z,17.96
2018-07-15T01:34:25.672Z,17.88
2018-07-15T01:36:57.953Z,17.91
2018-07-15T01:39:29.556Z,17.89
2018-07-15T01:41:59.800Z,17.90
2018-07-15T01:44:35.586Z,17.88
2018-07-15T01:47:05.896Z,17.78
2018-07-15T01:49:39.305Z,17.73
2018-07-15T01:52:10.245Z,17.63
2018-07-15T01:54:39.313Z,17.63
2018-07-15T01:57:10.630Z,17.62
2018-07-15T01:59:42.910Z,17.65
2018-07-15T02:02:12.741Z,17.54
2018-07-15T02:04:45.501Z,17.59
2018-07-15T02:07:21.956Z,17.60
2018-07-15T02:09:52.140Z,17.54
2018-07-15T02:12:26.444Z,17.49
2018-07-15T02:15:03.210Z,17.54
2018-07-15T02:17:33.309Z,17.31
2018-07-15T02:20:03.477Z,17.32
2018-07-15T02:22:33.148Z,17.02
2018-07-15T02:25:02.864Z,17.08
2018-07-15T02:27:34.005Z,17.09
2018-07-15T02:30:03.249Z,17.09
2018-07-15T02:32:33.228Z,17.04
2018-07-15T02:35:06.411Z,17.01
2018-07-15T02:37:40.157Z,17.03
2018-07-15T02:40:14.155Z,17.09
2018-07-15T02:42:44.712Z,17.13
2018-07-15T02:45:17.128Z,17.07
2018-07-15T02:47:47.694Z,17.06
2018-07-15T02:50:19.787Z,17.02
2018-07-15T02:52:50.996Z,16.99
2018-07-15T02:55:21.709Z,16.97
2018-07-15T02:57:54.263Z,16.91
2018-07-15T03:00:24.612Z,16.80
2018-07-15T03:02:57.956Z,16.74
2018-07-15T03:05:27.438Z,16.74
2018-07-15T03:07:59.460Z,16.64
2018-07-15T03:10:34.575Z,16.64
2018-07-15T03:13:09.941Z,16.62
2018-07-15T03:15:41.237Z,16.53
2018-07-15T03:18:10.694Z,16.50
2018-07-15T03:20:49.897Z,16.48
2018-07-15T03:23:22.713Z,16.48
2018-07-15T03:25:53.785Z,16.46
2018-07-15T03:28:29.603Z,16.33
2018-07-15T03:31:02.106Z,16.29
2018-07-15T03:33:34.145Z,16.29
2018-07-15T03:36:09.080Z,16.20
2018-07-15T03:38:40.144Z,16.31
2018-07-15T03:41:12.217Z,16.36
2018-07-15T03:43:48.284Z,16.33
2018-07-15T03:46:20.844Z,16.36
2018-07-15T03:48:51.056Z,16.34
2018-07-15T03:51:20.544Z,16.34
2018-07-15T03:53:51.357Z,16.35
2018-07-15T03:56:20.553Z,16.42
2018-07-15T03:58:54.196Z,16.45
2018-07-15T04:01:26.377Z,16.43
2018-07-15T04:04:02.761Z,16.46
2018-07-15T04:06:31.928Z,16.53
2018-07-15T04:09:02.459Z,16.53
2018-07-15T04:11:34.208Z,16.59
2018-07-15T04:14:05.548Z,16.63
2018-07-15T04:16:36.428Z,16.68
2018-07-15T04:19:08.848Z,16.76
2018-07-15T04:21:38.140Z,16.75
2018-07-15T04:24:09.574Z,16.80
2018-07-15T04:26:44.761Z,16.81
2018-07-15T04:29:14.151Z,16.92
2018-07-15T04:31:48.936Z,17.07
2018-07-15T04:34:20.213Z,17.10
2018-07-15T04:36:53.221Z,17.20
2018-07-15T04:39:22.825Z,17.27
2018-07-15T04:42:01.554Z,17.32
2018-07-15T04:44:32.797Z,17.35
2018-07-15T04:47:03.648Z,17.40
2018-07-15T04:49:35.186Z,17.44
2018-07-15T04:52:05.624Z,17.43
2018-07-15T04:54:37.588Z,17.37
2018-07-15T04:57:08.925Z,17.32
2018-07-15T04:59:42.937Z,17.23
2018-07-15T05:02:14.821Z,17.21
2018-07-15T05:04:46.410Z,17.27
2018-07-15T05:07:16.177Z,17.42
2018-07-15T05:09:46.095Z,17.56
2018-07-15T05:12:17.229Z,17.64
2018-07-15T05:14:52.971Z,17.73
2018-07-15T05:17:25.162Z,17.75
2018-07-15T05:19:55.788Z,17.81
2018-07-15T05:22:26.412Z,17.87
2018-07-15T05:24:59.360Z,18.02
2018-07-15T05:27:31.969Z,18.12
2018-07-15T05:30:02.889Z,18.13
2018-07-15T05:32:35.501Z,18.17
2018-07-15T05:35:08.269Z,18.23
2018-07-15T05:37:45.981Z,18.29
2018-07-15T05:40:16.305Z,18.54
2018-07-15T05:42:45.491Z,18.76
2018-07-15T05:45:18.228Z,18.95
2018-07-15T05:47:51.340Z,19.06
2018-07-15T05:50:23.686Z,19.24
2018-07-15T05:52:57.231Z,19.38
2018-07-15T05:55:29.853Z,19.49
2018-07-15T05:58:02.062Z,19.73
2018-07-15T06:00:34.142Z,19.96
2018-07-15T06:03:06.090Z,20.13
2018-07-15T06:05:41.393Z,20.44
2018-07-15T06:08:12.193Z,20.69
2018-07-15T06:10:41.948Z,20.88
2018-07-15T06:13:15.298Z,21.15
2018-07-15T06:15:49.997Z,21.24
2018-07-15T06:18:21.686Z,21.20
2018-07-15T06:20:52.066Z,21.24
2018-07-15T06:23:28.689Z,21.44
2018-07-15T06:25:59.820Z,21.84
2018-07-15T06:28:31.575Z,21.83
2018-07-15T06:31:01.313Z,22.65
2018-07-15T06:33:35.463Z,23.18
2018-07-15T06:36:12.350Z,22.99
2018-07-15T06:38:41.166Z,22.74
2018-07-15T06:41:12.732Z,22.69
2018-07-15T06:43:47.052Z,23.50
2018-07-15T06:46:18.491Z,23.18
2018-07-15T06:48:49.678Z,22.61
2018-07-15T06:51:25.591Z,23.02
2018-07-15T06:53:58.698Z,23.01
2018-07-15T06:56:29.360Z,23.66
2018-07-15T06:59:06.753Z,23.99
2018-07-15T07:01:38.711Z,23.67
2018-07-15T07:04:09.956Z,23.64
2018-07-15T07:06:41.675Z,23.75
2018-07-15T07:09:12.957Z,24.07
2018-07-15T07:11:42.948Z,23.52
2018-07-15T07:14:18.925Z,23.39
2018-07-15T07:16:50.812Z,24.33
2018-07-15T07:19:23.188Z,24.88
2018-07-15T07:21:55.637Z,24.45
2018-07-15T07:24:24.992Z,24.18
2018-07-15T07:26:54.681Z,24.30
2018-07-15T07:29:26.392Z,25.08
2018-07-15T07:31:56.673Z,26.63
2018-07-15T07:34:33.367Z,26.10
2018-07-15T07:37:03.621Z,26.38
2018-07-15T07:39:33.714Z,27.02
2018-07-15T07:42:03.796Z,27.82
2018-07-15T07:44:35.977Z,28.44
2018-07-15T07:47:07.498Z,28.86
2018-07-15T07:49:36.621Z,29.19
2018-07-15T07:52:07.209Z,29.90
2018-07-15T07:54:38.277Z,30.26
2018-07-15T07:57:11.804Z,30.54
2018-07-15T07:59:44.549Z,30.36
2018-07-15T08:02:16.323Z,30.18
2018-07-15T08:04:49.819Z,29.66
2018-07-15T08:07:20.238Z,30.55
2018-07-15T08:09:52.280Z,32.81
2018-07-15T08:12:25.869Z,33.04
2018-07-15T08:14:58.157Z,31.75
2018-07-15T08:17:46.187Z,33.37
2018-07-15T08:20:26.810Z,35.77
2018-07-15T08:26:02.263Z,37.57
2018-07-15T08:31:36.095Z,37.36
2018-07-15T08:34:17.760Z,37.93
2018-07-15T08:36:59.254Z,35.89
2018-07-15T08:39:31.417Z,38.81
2018-07-15T08:42:04.292Z,38.46
2018-07-15T08:44:42.993Z,35.85
2018-07-15T08:47:14.553Z,38.12
2018-07-15T08:49:48.519Z,39.35
2018-07-15T08:52:24.706Z,35.58
2018-07-15T08:55:01.611Z,31.93
2018-07-15T08:57:36.826Z,30.92
2018-07-15T09:00:08.025Z,32.22
2018-07-15T09:02:39.188Z,35.48
2018-07-15T09:05:12.467Z,38.11
2018-07-15T09:07:44.676Z,33.93
2018-07-15T09:10:14.295Z,33.02
2018-07-15T09:12:43.541Z,31.84
2018-07-15T09:15:12.589Z,31.31
2018-07-15T09:17:42.842Z,32.58
2018-07-15T09:20:11.909Z,34.02
2018-07-15T09:22:41.013Z,32.99
2018-07-15T09:25:11.048Z,31.49
2018-07-15T09:27:40.249Z,30.13
2018-07-15T09:30:09.356Z,28.45
2018-07-15T09:32:38.716Z,27.58
2018-07-15T09:35:08.429Z,28.15
2018-07-15T09:37:38.786Z,28.99
2018-07-15T09:40:08.942Z,28.99
2018-07-15T09:42:38.940Z,29.56
2018-07-15T09:45:08.081Z,32.31
2018-07-15T09:47:37.606Z,32.49
2018-07-15T09:50:06.780Z,31.13
2018-07-15T09:52:36.020Z,34.19
2018-07-15T09:55:06.739Z,35.67
2018-07-15T09:57:36.273Z,35.50
2018-07-15T10:00:07.316Z,35.14
2018-07-15T10:02:39.144Z,35.73
2018-07-15T10:05:10.201Z,35.76
2018-07-15T10:07:45.201Z,37.17
2018-07-15T10:10:18.348Z,38.87
2018-07-15T10:12:52.034Z,32.49
2018-07-15T10:15:23.824Z,33.07
2018-07-15T10:17:56.561Z,33.84
2018-07-15T10:20:26.805Z,33.19
2018-07-15T10:22:59.509Z,34.52
2018-07-15T10:25:33.678Z,34.85
2018-07-15T10:28:04.461Z,36.07
2018-07-15T10:30:39.257Z,35.03
2018-07-15T10:33:10.155Z,34.64
2018-07-15T10:35:45.285Z,36.92
2018-07-15T10:38:17.541Z,37.59
2018-07-15T10:40:53.032Z,37.83
2018-07-15T10:43:27.787Z,38.05
2018-07-15T10:45:58.428Z,36.24
2018-07-15T10:48:28.425Z,38.04
2018-07-15T10:51:00.545Z,39.31
2018-07-15T10:53:30.315Z,40.35
2018-07-15T10:56:00.001Z,41.28
2018-07-15T10:58:36.665Z,40.93
2018-07-15T11:01:10.093Z,42.47
2018-07-15T11:03:43.193Z,41.18
2018-07-15T11:06:12.002Z,38.96
2018-07-15T11:08:42.460Z,38.76
2018-07-15T11:11:14.452Z,36.63
2018-07-15T11:13:48.785Z,35.38
2018-07-15T11:16:26.027Z,37.14
2018-07-15T11:18:59.328Z,39.12
2018-07-15T11:21:34.988Z,38.41
2018-07-15T11:24:10.757Z,36.79
2018-07-15T11:26:40.164Z,36.65
2018-07-15T11:29:10.484Z,37.62
2018-07-15T11:31:41.812Z,38.68
2018-07-15T11:34:12.731Z,39.84
2018-07-15T11:36:42.790Z,41.08
2018-07-15T11:39:15.133Z,41.54
2018-07-15T11:41:45.460Z,40.12
2018-07-15T11:44:22.632Z,40.42
2018-07-15T11:46:56.769Z,41.98
2018-07-15T11:49:29.466Z,42.16
2018-07-15T11:52:01.639Z,41.07
2018-07-15T11:54:39.033Z,39.23
2018-07-15T11:57:10.868Z,37.97
2018-07-15T11:59:40.709Z,36.08
2018-07-15T12:02:11.137Z,38.22
2018-07-15T12:04:43.150Z,37.55
2018-07-15T12:07:15.956Z,37.95
2018-07-15T12:09:48.450Z,37.52
2018-07-15T12:12:20.701Z,37.78
2018-07-15T12:14:51.258Z,37.26
2018-07-15T12:17:23.272Z,38.42
2018-07-15T12:19:55.843Z,37.81
2018-07-15T12:22:28.272Z,38.31
2018-07-15T12:25:02.177Z,37.30
2018-07-15T12:27:33.614Z,37.07
2018-07-15T12:30:05.196Z,36.71
2018-07-15T12:32:36.935Z,37.61
2018-07-15T12:35:06.417Z,38.15
2018-07-15T12:37:35.847Z,39.20
2018-07-15T12:40:07.468Z,40.06
2018-07-15T12:42:40.253Z,41.13
2018-07-15T12:45:12.949Z,38.79
2018-07-15T12:47:43.390Z,36.52
2018-07-15T12:50:13.086Z,33.99
2018-07-15T12:52:43.071Z,33.27
2018-07-15T12:55:15.081Z,33.00
2018-07-15T12:57:45.167Z,33.07
2018-07-15T13:00:15.867Z,33.30
2018-07-15T13:02:48.690Z,31.90
2018-07-15T13:05:18.487Z,31.99
2018-07-15T13:07:49.428Z,32.14
2018-07-15T13:10:19.488Z,30.89
2018-07-15T13:12:51.117Z,30.77
2018-07-15T13:15:22.698Z,30.23
2018-07-15T13:17:53.210Z,29.93
2018-07-15T13:20:22.384Z,29.32
2018-07-15T13:22:54.964Z,29.11
2018-07-15T13:25:26.924Z,28.93
2018-07-15T13:27:59.403Z,28.66
2018-07-15T13:30:31.151Z,28.04
2018-07-15T13:33:02.753Z,27.94
2018-07-15T13:35:33.857Z,27.51
2018-07-15T13:38:07.261Z,27.39
2018-07-15T13:40:37.467Z,26.73
2018-07-15T13:43:08.260Z,24.88
2018-07-15T13:45:40.860Z,22.74
2018-07-15T13:48:14.392Z,21.58
2018-07-15T13:50:44.987Z,20.99
2018-07-15T13:53:14.799Z,20.60
2018-07-15T13:55:44.248Z,20.38
2018-07-15T13:58:15.952Z,20.31
2018-07-15T14:00:46.886Z,20.03
2018-07-15T14:03:19.509Z,20.08
2018-07-15T14:05:49.424Z,20.16
2018-07-15T14:08:20.572Z,20.06
2018-07-15T14:10:52.129Z,20.15
2018-07-15T14:13:23.645Z,20.28
2018-07-15T14:15:54.753Z,20.27
2018-07-15T14:18:25.492Z,20.33
2018-07-15T14:20:56.392Z,20.19
2018-07-15T14:23:27.943Z,20.14
2018-07-15T14:26:00.822Z,20.09
2018-07-15T14:28:33.421Z,20.10
2018-07-15T14:31:07.887Z,19.85
2018-07-15T14:33:38.762Z,19.70
2018-07-15T14:36:11.544Z,19.70
2018-07-15T14:38:45.358Z,19.58
2018-07-15T14:41:20.393Z,19.79
2018-07-15T14:43:51.337Z,19.84
2018-07-15T14:46:21.965Z,19.94
2018-07-15T14:48:53.734Z,20.04
2018-07-15T14:51:26.658Z,19.99
2018-07-15T14:53:58.956Z,20.17
2018-07-15T14:56:29.508Z,20.03
2018-07-15T14:59:09.200Z,20.07
2018-07-15T15:01:41.132Z,19.92
2018-07-15T15:04:13.225Z,19.72
2018-07-15T15:06:49.958Z,19.66
2018-07-15T15:09:20.990Z,19.31
2018-07-15T15:11:54.497Z,19.31
2018-07-15T15:14:26.165Z,19.21
2018-07-15T15:16:56.419Z,19.08
2018-07-15T15:19:27.083Z,19.20
2018-07-15T15:22:06.900Z,18.92
2018-07-15T15:24:43.328Z,18.95
2018-07-15T15:27:13.688Z,19.05
2018-07-15T15:29:44.832Z,18.95
2018-07-15T15:32:20.846Z,18.50
2018-07-15T15:34:51.251Z,18.52
2018-07-15T15:37:27.508Z,18.35
2018-07-15T15:39:59.097Z,18.37
2018-07-15T15:42:31.471Z,18.33
2018-07-15T15:45:04.257Z,18.20
2018-07-15T15:47:39.792Z,18.06
2018-07-15T15:50:09.689Z,18.09
2018-07-15T15:52:39.479Z,18.10
2018-07-15T15:55:10.970Z,18.13
2018-07-15T15:57:41.565Z,18.14
2018-07-15T16:00:13.473Z,18.10
2018-07-15T16:02:45.149Z,17.98
2018-07-15T16:05:21.108Z,18.05
2018-07-15T16:07:50.461Z,18.13
2018-07-15T16:10:23.678Z,18.24
2018-07-15T16:12:55.128Z,18.25
2018-07-15T16:15:39.168Z,18.15
2018-07-15T16:18:09.421Z,18.28
2018-07-15T16:20:40.388Z,18.13
2018-07-15T16:23:13.794Z,17.92
2018-07-15T16:25:44.532Z,17.91
2018-07-15T16:28:13.396Z,18.11
2018-07-15T16:30:43.595Z,18.06
2018-07-15T16:35:54.136Z,18.30
2018-07-15T16:38:24.277Z,18.27
2018-07-15T16:40:53.680Z,18.38
2018-07-15T16:43:23.981Z,18.46
2018-07-15T16:45:54.107Z,18.31
2018-07-15T16:48:23.781Z,18.30
2018-07-15T16:50:53.448Z,18.25
2018-07-15T16:53:22.815Z,18.29
2018-07-15T16:55:55.855Z,18.38
2018-07-15T16:58:28.016Z,18.42
2018-07-15T17:00:57.716Z,18.40
2018-07-15T17:03:28.801Z,18.50
2018-07-15T17:06:01.760Z,18.37
2018-07-15T17:08:36.027Z,18.34
2018-07-15T17:11:15.428Z,18.02
2018-07-15T17:13:54.454Z,18.01
2018-07-15T17:16:29.201Z,17.95
2018-07-15T17:19:04.552Z,17.89
2018-07-15T17:21:41.653Z,17.87
2018-07-15T17:24:22.598Z,17.93
2018-07-15T17:27:04.558Z,17.82
2018-07-15T17:29:49.993Z,17.90
2018-07-15T17:32:33.396Z,17.86
2018-07-15T17:35:18.153Z,17.95
2018-07-15T17:37:52.297Z,18.05
2018-07-15T17:43:10.925Z,18.01
2018-07-15T17:45:48.274Z,17.96
2018-07-15T17:48:19.356Z,18.06
2018-07-15T17:50:51.728Z,18.14
2018-07-15T17:53:23.220Z,18.12
2018-07-15T17:55:58.876Z,18.12
2018-07-15T17:58:32.963Z,18.11
2018-07-15T18:01:06.968Z,18.06
2018-07-15T18:03:41.160Z,18.04
2018-07-15T18:06:10.874Z,18.07
2018-07-15T18:08:46.869Z,18.03
2018-07-15T18:11:20.595Z,18.04
2018-07-15T18:13:50.399Z,17.88
2018-07-15T18:16:19.716Z,17.93
2018-07-15T18:18:50.289Z,17.92
2018-07-15T18:21:19.569Z,18.00
2018-07-15T18:23:48.611Z,18.01
2018-07-15T18:26:17.933Z,18.09
2018-07-15T18:28:46.861Z,18.10
2018-07-15T18:31:15.933Z,18.08
2018-07-15T18:33:45.477Z,18.11
2018-07-15T18:36:15.788Z,18.02
2018-07-15T18:38:45.411Z,18.10
2018-07-15T18:41:14.648Z,18.29
2018-07-15T18:43:44.261Z,18.19
2018-07-15T18:46:15.900Z,18.05
2018-07-15T18:48:45.633Z,17.85
2018-07-15T18:51:15.529Z,17.86
2018-07-15T18:53:46.892Z,17.92
2018-07-15T18:56:15.884Z,17.92
2018-07-15T18:58:45.068Z,17.94
2018-07-15T19:01:15.065Z,17.87
2018-07-15T19:03:46.852Z,17.93
2018-07-15T19:06:17.187Z,18.03
2018-07-15T19:08:46.367Z,18.08
2018-07-15T19:11:17.773Z,18.09
2018-07-15T19:13:49.574Z,18.11
2018-07-15T19:16:19.857Z,18.04
2018-07-15T19:18:55.737Z,18.02
2018-07-15T19:21:27.260Z,17.94
2018-07-15T19:24:02.307Z,17.78
2018-07-15T19:26:31.443Z,17.85
2018-07-15T19:29:03.414Z,17.79
2018-07-15T19:31:33.265Z,17.79
2018-07-15T19:34:06.777Z,17.68
2018-07-15T19:36:36.741Z,17.68
2018-07-15T19:39:08.146Z,17.74
2018-07-15T19:41:38.592Z,17.63
2018-07-15T19:44:09.556Z,17.62
2018-07-15T19:46:39.444Z,17.56
2018-07-15T19:49:08.876Z,17.62
2018-07-15T19:51:39.277Z,17.62
2018-07-15T19:54:09.793Z,17.65
2018-07-15T19:56:40.570Z,17.69
2018-07-15T19:59:10.433Z,17.61
2018-07-15T20:01:44.588Z,17.61
2018-07-15T20:04:15.916Z,17.61
2018-07-15T20:06:48.223Z,17.56
2018-07-15T20:09:18.734Z,17.55
2018-07-15T20:11:50.577Z,17.49
2018-07-15T20:14:26.433Z,17.56
2018-07-15T20:17:01.133Z,17.60
2018-07-15T20:19:39.389Z,17.60
2018-07-15T20:22:09.172Z,17.60
2018-07-15T20:24:40.609Z,17.61
2018-07-15T20:27:11.049Z,17.54
2018-07-15T20:29:41.897Z,17.50
2018-07-15T20:34:49.000Z,17.41
2018-07-15T20:37:19.013Z,17.41
2018-07-15T20:39:52.764Z,17.50
2018-07-15T20:42:23.452Z,17.44
2018-07-15T20:44:52.937Z,17.56
2018-07-15T20:47:27.186Z,17.49
2018-07-15T20:49:58.605Z,17.44
2018-07-15T20:52:34.961Z,17.37
2018-07-15T20:55:08.818Z,17.30
2018-07-15T20:57:41.161Z,17.28
2018-07-15T21:00:11.014Z,17.29
2018-07-15T21:02:42.279Z,17.34
2018-07-15T21:05:12.345Z,17.39
2018-07-15T21:07:44.101Z,17.34
2018-07-15T21:10:16.396Z,17.33
2018-07-15T21:12:47.445Z,17.30
2018-07-15T21:15:19.196Z,17.33
2018-07-15T21:17:48.968Z,17.37
2018-07-15T21:20:18.782Z,17.39
2018-07-15T21:22:49.424Z,17.45
2018-07-15T21:25:19.638Z,17.47
2018-07-15T21:27:49.442Z,17.48
2018-07-15T21:30:30.345Z,17.47
2018-07-15T21:33:00.445Z,17.39
2018-07-15T21:35:31.725Z,17.39
2018-07-15T21:38:07.800Z,17.32
2018-07-15T21:40:38.712Z,17.38
2018-07-15T21:43:08.130Z,17.45
2018-07-15T21:45:38.421Z,17.47
2018-07-15T21:48:08.905Z,17.53
2018-07-15T21:50:40.025Z,17.54
2018-07-15T21:53:10.316Z,17.55
2018-07-15T21:55:41.653Z,17.49
2018-07-15T21:58:15.365Z,17.40
2018-07-15T22:00:51.928Z,17.36
2018-07-15T22:03:27.440Z,17.42
2018-07-15T22:05:56.801Z,17.41
2018-07-15T22:08:54.856Z,17.50
2018-07-15T22:11:25.080Z,17.46
2018-07-15T22:13:56.786Z,17.47
2018-07-15T22:16:26.745Z,17.49
2018-07-15T22:18:55.846Z,17.54
2018-07-15T22:21:27.000Z,17.54
2018-07-15T22:23:58.360Z,17.50
2018-07-15T22:26:27.531Z,17.55
2018-07-15T22:28:58.882Z,17.47
2018-07-15T22:31:33.506Z,17.46
2018-07-15T22:34:05.104Z,17.46
2018-07-15T22:36:37.779Z,17.43
2018-07-15T22:39:10.884Z,17.40
2018-07-15T22:41:40.959Z,17.45
2018-07-15T22:44:11.385Z,17.50
2018-07-15T22:46:41.092Z,17.53
2018-07-15T22:49:13.668Z,17.61
2018-07-15T22:51:46.349Z,17.64
2018-07-15T22:54:17.109Z,17.62
2018-07-15T22:56:48.240Z,17.56
2018-07-15T22:59:18.677Z,17.54
2018-07-15T23:01:47.729Z,17.55
2018-07-15T23:04:24.245Z,17.50
2018-07-15T23:06:53.417Z,17.47
2018-07-15T23:09:23.020Z,17.48
2018-07-15T23:11:55.396Z,17.54
2018-07-15T23:14:24.573Z,17.54
2018-07-15T23:16:55.046Z,17.50
2018-07-15T23:19:25.400Z,17.39
2018-07-15T23:22:00.583Z,17.26
2018-07-15T23:24:32.039Z,17.08
2018-07-15T23:27:04.641Z,17.07
2018-07-15T23:29:35.142Z,17.06
2018-07-15T23:32:06.409Z,17.11
2018-07-15T23:34:41.941Z,17.15
2018-07-15T23:37:12.165Z,17.22
2018-07-15T23:39:43.081Z,17.20
2018-07-15T23:42:13.425Z,17.25
2018-07-15T23:44:47.966Z,17.29
2018-07-15T23:47:18.373Z,17.39
2018-07-15T23:49:52.185Z,17.47
2018-07-15T23:52:22.715Z,17.24
2018-07-15T23:54:59.383Z,17.15
2018-07-15T23:57:35.832Z,17.17
